sensor_id;sensor_type;location;lat;lon;timestamp;temperature;humidity
52481;DHT22;38393;52.404;13.532;2023-06-14T00:00:36;13.70;81.20
52481;DHT22;38393;52.404;13.532;2023-06-14T00:03:04;13.70;80.70
52481;DHT22;38393;52.404;13.532;2023-06-14T00:05:30;13.70;80.60
52481;DHT22;38393;52.404;13.532;2023-06-14T00:07:58;13.70;80.60
52481;DHT22;38393;52.404;13.532;2023-06-14T00:10:25;13.80;80.50
52481;DHT22;38393;52.404;13.532;2023-06-14T00:12:56;13.70;80.70
52481;DHT22;38393;52.404;13.532;2023-06-14T00:15:21;13.70;81.30
52481;DHT22;38393;52.404;13.532;2023-06-14T00:17:48;13.60;81.50
52481;DHT22;38393;52.404;13.532;2023-06-14T00:20:14;13.50;82.20
52481;DHT22;38393;52.404;13.532;2023-06-14T00:22:40;13.60;83.00
52481;DHT22;38393;52.404;13.532;2023-06-14T00:25:06;13.50;83.00
52481;DHT22;38393;52.404;13.532;2023-06-14T00:27:31;13.60;82.60
52481;DHT22;38393;52.404;13.532;2023-06-14T00:29:57;13.50;83.00
52481;DHT22;38393;52.404;13.532;2023-06-14T00:32:23;13.40;83.50
52481;DHT22;38393;52.404;13.532;2023-06-14T00:34:51;13.40;83.70
52481;DHT22;38393;52.404;13.532;2023-06-14T00:37:16;13.30;83.90
52481;DHT22;38393;52.404;13.532;2023-06-14T00:39:42;13.40;84.30
52481;DHT22;38393;52.404;13.532;2023-06-14T00:42:07;13.30;84.80
52481;DHT22;38393;52.404;13.532;2023-06-14T00:44:33;13.20;85.50
52481;DHT22;38393;52.404;13.532;2023-06-14T00:46:58;13.10;86.00
52481;DHT22;38393;52.404;13.532;2023-06-14T00:49:24;13.20;86.40
52481;DHT22;38393;52.404;13.532;2023-06-14T00:51:50;13.10;87.00
52481;DHT22;38393;52.404;13.532;2023-06-14T00:54:16;13.20;87.50
52481;DHT22;38393;52.404;13.532;2023-06-14T00:56:44;13.20;87.80
52481;DHT22;38393;52.404;13.532;2023-06-14T00:59:09;13.10;88.40
52481;DHT22;38393;52.404;13.532;2023-06-14T01:01:36;13.10;88.60
52481;DHT22;38393;52.404;13.532;2023-06-14T01:04:02;13.00;89.20
52481;DHT22;38393;52.404;13.532;2023-06-14T01:09:18;13.00;90.00
52481;DHT22;38393;52.404;13.532;2023-06-14T01:12:01;13.00;90.20
52481;DHT22;38393;52.404;13.532;2023-06-14T01:14:31;13.00;90.60
52481;DHT22;38393;52.404;13.532;2023-06-14T01:16:58;13.00;91.10
52481;DHT22;38393;52.404;13.532;2023-06-14T01:19:25;13.00;91.20
52481;DHT22;38393;52.404;13.532;2023-06-14T01:21:56;13.00;91.30
52481;DHT22;38393;52.404;13.532;2023-06-14T01:24:21;13.00;91.50
52481;DHT22;38393;52.404;13.532;2023-06-14T01:26:52;13.00;91.40
52481;DHT22;38393;52.404;13.532;2023-06-14T01:29:22;13.00;91.30
52481;DHT22;38393;52.404;13.532;2023-06-14T01:31:47;13.00;91.60
52481;DHT22;38393;52.404;13.532;2023-06-14T01:34:14;12.90;91.90
52481;DHT22;38393;52.404;13.532;2023-06-14T01:36:41;12.90;92.00
52481;DHT22;38393;52.404;13.532;2023-06-14T01:39:10;12.80;92.10
52481;DHT22;38393;52.404;13.532;2023-06-14T01:41:37;12.80;92.40
52481;DHT22;38393;52.404;13.532;2023-06-14T01:44:03;12.90;92.50
52481;DHT22;38393;52.404;13.532;2023-06-14T01:46:30;12.80;92.70
52481;DHT22;38393;52.404;13.532;2023-06-14T01:48:55;12.80;92.70
52481;DHT22;38393;52.404;13.532;2023-06-14T01:51:21;12.70;92.70
52481;DHT22;38393;52.404;13.532;2023-06-14T01:53:47;12.70;92.80
52481;DHT22;38393;52.404;13.532;2023-06-14T01:56:13;12.70;92.80
52481;DHT22;38393;52.404;13.532;2023-06-14T01:58:39;12.70;92.90
52481;DHT22;38393;52.404;13.532;2023-06-14T02:01:05;12.70;92.70
52481;DHT22;38393;52.404;13.532;2023-06-14T02:03:32;12.80;92.80
52481;DHT22;38393;52.404;13.532;2023-06-14T02:05:58;12.70;92.60
52481;DHT22;38393;52.404;13.532;2023-06-14T02:08:23;12.70;92.90
52481;DHT22;38393;52.404;13.532;2023-06-14T02:10:49;12.70;93.00
52481;DHT22;38393;52.404;13.532;2023-06-14T02:13:14;12.70;93.20
52481;DHT22;38393;52.404;13.532;2023-06-14T02:15:40;12.70;93.20
52481;DHT22;38393;52.404;13.532;2023-06-14T02:18:09;12.80;93.30
52481;DHT22;38393;52.404;13.532;2023-06-14T02:20:34;12.80;93.30
52481;DHT22;38393;52.404;13.532;2023-06-14T02:23:00;12.80;93.30
52481;DHT22;38393;52.404;13.532;2023-06-14T02:25:26;12.70;93.40
52481;DHT22;38393;52.404;13.532;2023-06-14T02:27:53;12.60;93.30
52481;DHT22;38393;52.404;13.532;2023-06-14T02:30:19;12.50;93.60
52481;DHT22;38393;52.404;13.532;2023-06-14T02:32:45;12.60;93.50
52481;DHT22;38393;52.404;13.532;2023-06-14T02:35:10;12.60;93.40
52481;DHT22;38393;52.404;13.532;2023-06-14T02:37:36;12.50;93.70
52481;DHT22;38393;52.404;13.532;2023-06-14T02:40:01;12.60;93.70
52481;DHT22;38393;52.404;13.532;2023-06-14T02:42:26;12.50;93.60
52481;DHT22;38393;52.404;13.532;2023-06-14T02:44:52;12.50;93.70
52481;DHT22;38393;52.404;13.532;2023-06-14T02:47:18;12.50;93.80
52481;DHT22;38393;52.404;13.532;2023-06-14T02:49:44;12.50;93.80
52481;DHT22;38393;52.404;13.532;2023-06-14T02:52:11;12.50;93.70
52481;DHT22;38393;52.404;13.532;2023-06-14T02:54:37;12.50;93.70
52481;DHT22;38393;52.404;13.532;2023-06-14T02:57:02;12.40;94.00
52481;DHT22;38393;52.404;13.532;2023-06-14T02:59:28;12.30;94.00
52481;DHT22;38393;52.404;13.532;2023-06-14T03:01:53;12.40;94.00
52481;DHT22;38393;52.404;13.532;2023-06-14T03:04:19;12.30;94.10
52481;DHT22;38393;52.404;13.532;2023-06-14T03:06:45;12.40;94.10
52481;DHT22;38393;52.404;13.532;2023-06-14T03:09:15;12.30;94.10
52481;DHT22;38393;52.404;13.532;2023-06-14T03:11:41;12.50;94.20
52481;DHT22;38393;52.404;13.532;2023-06-14T03:14:07;12.30;94.20
52481;DHT22;38393;52.404;13.532;2023-06-14T03:16:33;12.40;94.40
52481;DHT22;38393;52.404;13.532;2023-06-14T03:18:59;12.30;94.30
52481;DHT22;38393;52.404;13.532;2023-06-14T03:21:25;12.30;94.40
52481;DHT22;38393;52.404;13.532;2023-06-14T03:23:51;12.20;94.50
52481;DHT22;38393;52.404;13.532;2023-06-14T03:26:18;12.30;94.50
52481;DHT22;38393;52.404;13.532;2023-06-14T03:28:44;12.30;94.40
52481;DHT22;38393;52.404;13.532;2023-06-14T03:31:11;12.30;94.50
52481;DHT22;38393;52.404;13.532;2023-06-14T03:33:36;12.30;94.50
52481;DHT22;38393;52.404;13.532;2023-06-14T03:36:02;12.30;94.50
52481;DHT22;38393;52.404;13.532;2023-06-14T03:38:28;12.40;94.40
52481;DHT22;38393;52.404;13.532;2023-06-14T03:40:54;12.30;94.50
52481;DHT22;38393;52.404;13.532;2023-06-14T03:43:19;12.30;94.60
52481;DHT22;38393;52.404;13.532;2023-06-14T03:45:45;12.30;94.70
52481;DHT22;38393;52.404;13.532;2023-06-14T03:48:10;12.40;94.60
52481;DHT22;38393;52.404;13.532;2023-06-14T03:50:35;12.20;94.60
52481;DHT22;38393;52.404;13.532;2023-06-14T03:53:03;12.30;94.70
52481;DHT22;38393;52.404;13.532;2023-06-14T03:55:29;12.30;94.80
52481;DHT22;38393;52.404;13.532;2023-06-14T03:57:56;12.40;94.90
52481;DHT22;38393;52.404;13.532;2023-06-14T04:00:22;12.40;94.60
52481;DHT22;38393;52.404;13.532;2023-06-14T04:02:47;12.50;94.50
52481;DHT22;38393;52.404;13.532;2023-06-14T04:05:13;12.70;94.30
52481;DHT22;38393;52.404;13.532;2023-06-14T04:07:40;13.00;93.80
52481;DHT22;38393;52.404;13.532;2023-06-14T04:10:13;13.10;93.70
52481;DHT22;38393;52.404;13.532;2023-06-14T04:12:39;13.30;93.60
52481;DHT22;38393;52.404;13.532;2023-06-14T04:15:05;13.70;92.80
52481;DHT22;38393;52.404;13.532;2023-06-14T04:17:32;14.00;92.30
52481;DHT22;38393;52.404;13.532;2023-06-14T04:20:01;14.10;91.80
52481;DHT22;38393;52.404;13.532;2023-06-14T04:22:29;14.00;92.20
52481;DHT22;38393;52.404;13.532;2023-06-14T04:24:55;14.00;92.20
52481;DHT22;38393;52.404;13.532;2023-06-14T04:27:25;14.00;92.10
52481;DHT22;38393;52.404;13.532;2023-06-14T04:29:55;14.30;91.60
52481;DHT22;38393;52.404;13.532;2023-06-14T04:32:25;14.30;91.30
52481;DHT22;38393;52.404;13.532;2023-06-14T04:34:57;14.50;91.20
52481;DHT22;38393;52.404;13.532;2023-06-14T04:37:24;14.10;91.60
52481;DHT22;38393;52.404;13.532;2023-06-14T04:39:51;14.20;91.60
52481;DHT22;38393;52.404;13.532;2023-06-14T04:42:17;14.40;91.40
52481;DHT22;38393;52.404;13.532;2023-06-14T04:44:45;15.00;90.30
52481;DHT22;38393;52.404;13.532;2023-06-14T04:47:13;15.10;89.90
52481;DHT22;38393;52.404;13.532;2023-06-14T04:49:39;15.50;88.60
52481;DHT22;38393;52.404;13.532;2023-06-14T04:52:06;15.50;87.90
52481;DHT22;38393;52.404;13.532;2023-06-14T04:54:32;15.50;87.50
52481;DHT22;38393;52.404;13.532;2023-06-14T04:56:59;15.40;87.70
52481;DHT22;38393;52.404;13.532;2023-06-14T04:59:24;15.50;87.10
52481;DHT22;38393;52.404;13.532;2023-06-14T05:01:51;15.60;86.40
52481;DHT22;38393;52.404;13.532;2023-06-14T05:04:17;15.90;85.40
52481;DHT22;38393;52.404;13.532;2023-06-14T05:06:43;15.90;84.80
52481;DHT22;38393;52.404;13.532;2023-06-14T05:09:13;15.60;84.80
52481;DHT22;38393;52.404;13.532;2023-06-14T05:11:39;15.20;86.60
52481;DHT22;38393;52.404;13.532;2023-06-14T05:14:05;15.20;86.80
52481;DHT22;38393;52.404;13.532;2023-06-14T05:16:31;15.20;87.00
52481;DHT22;38393;52.404;13.532;2023-06-14T05:18:57;15.20;87.10
52481;DHT22;38393;52.404;13.532;2023-06-14T05:21:23;15.50;86.30
52481;DHT22;38393;52.404;13.532;2023-06-14T05:23:49;15.50;86.20
52481;DHT22;38393;52.404;13.532;2023-06-14T05:26:16;15.50;86.90
52481;DHT22;38393;52.404;13.532;2023-06-14T05:28:41;15.80;85.20
52481;DHT22;38393;52.404;13.532;2023-06-14T05:31:06;15.70;85.10
52481;DHT22;38393;52.404;13.532;2023-06-14T05:33:32;15.90;84.90
52481;DHT22;38393;52.404;13.532;2023-06-14T05:35:57;15.80;84.30
52481;DHT22;38393;52.404;13.532;2023-06-14T05:38:23;16.00;83.50
52481;DHT22;38393;52.404;13.532;2023-06-14T05:40:48;16.10;83.30
52481;DHT22;38393;52.404;13.532;2023-06-14T05:43:14;16.00;83.40
52481;DHT22;38393;52.404;13.532;2023-06-14T05:45:39;16.00;84.40
52481;DHT22;38393;52.404;13.532;2023-06-14T05:48:05;15.80;84.70
52481;DHT22;38393;52.404;13.532;2023-06-14T05:50:30;16.00;83.50
52481;DHT22;38393;52.404;13.532;2023-06-14T05:52:56;15.90;83.80
52481;DHT22;38393;52.404;13.532;2023-06-14T05:55:21;15.90;83.80
52481;DHT22;38393;52.404;13.532;2023-06-14T05:57:47;15.60;84.10
52481;DHT22;38393;52.404;13.532;2023-06-14T06:00:14;15.60;85.00
52481;DHT22;38393;52.404;13.532;2023-06-14T06:02:44;15.40;86.10
52481;DHT22;38393;52.404;13.532;2023-06-14T06:05:13;15.50;86.30
52481;DHT22;38393;52.404;13.532;2023-06-14T06:07:39;15.50;86.10
52481;DHT22;38393;52.404;13.532;2023-06-14T06:10:06;15.60;86.40
52481;DHT22;38393;52.404;13.532;2023-06-14T06:12:31;15.60;85.90
52481;DHT22;38393;52.404;13.532;2023-06-14T06:14:58;15.60;85.50
52481;DHT22;38393;52.404;13.532;2023-06-14T06:17:27;15.70;85.60
52481;DHT22;38393;52.404;13.532;2023-06-14T06:19:53;15.70;84.90
52481;DHT22;38393;52.404;13.532;2023-06-14T06:22:19;15.70;85.00
52481;DHT22;38393;52.404;13.532;2023-06-14T06:24:44;15.70;85.20
52481;DHT22;38393;52.404;13.532;2023-06-14T06:27:10;15.70;85.70
52481;DHT22;38393;52.404;13.532;2023-06-14T06:29:37;15.70;85.80
52481;DHT22;38393;52.404;13.532;2023-06-14T06:32:03;15.70;85.40
52481;DHT22;38393;52.404;13.532;2023-06-14T06:34:29;15.60;85.20
52481;DHT22;38393;52.404;13.532;2023-06-14T06:36:54;15.60;85.60
52481;DHT22;38393;52.404;13.532;2023-06-14T06:39:20;15.60;85.90
52481;DHT22;38393;52.404;13.532;2023-06-14T06:41:46;15.80;85.00
52481;DHT22;38393;52.404;13.532;2023-06-14T06:44:11;16.00;84.00
52481;DHT22;38393;52.404;13.532;2023-06-14T06:46:38;16.10;83.90
52481;DHT22;38393;52.404;13.532;2023-06-14T06:49:08;16.20;84.10
52481;DHT22;38393;52.404;13.532;2023-06-14T06:51:35;16.20;83.40
52481;DHT22;38393;52.404;13.532;2023-06-14T06:54:02;16.40;82.50
52481;DHT22;38393;52.404;13.532;2023-06-14T06:56:27;16.70;81.40
52481;DHT22;38393;52.404;13.532;2023-06-14T06:58:53;16.70;81.40
52481;DHT22;38393;52.404;13.532;2023-06-14T07:01:19;16.80;81.10
52481;DHT22;38393;52.404;13.532;2023-06-14T07:03:45;16.80;80.50
52481;DHT22;38393;52.404;13.532;2023-06-14T07:06:10;17.10;79.10
52481;DHT22;38393;52.404;13.532;2023-06-14T07:08:36;17.30;78.30
52481;DHT22;38393;52.404;13.532;2023-06-14T07:11:04;17.10;79.70
52481;DHT22;38393;52.404;13.532;2023-06-14T07:13:29;17.60;77.20
52481;DHT22;38393;52.404;13.532;2023-06-14T07:15:58;17.80;76.70
52481;DHT22;38393;52.404;13.532;2023-06-14T07:18:24;18.10;75.60
52481;DHT22;38393;52.404;13.532;2023-06-14T07:20:49;18.60;74.30
52481;DHT22;38393;52.404;13.532;2023-06-14T07:23:15;18.90;73.90
52481;DHT22;38393;52.404;13.532;2023-06-14T07:25:40;19.10;72.20
52481;DHT22;38393;52.404;13.532;2023-06-14T07:28:06;19.20;72.30
52481;DHT22;38393;52.404;13.532;2023-06-14T07:30:32;18.90;72.00
52481;DHT22;38393;52.404;13.532;2023-06-14T07:32:57;19.00;71.30
52481;DHT22;38393;52.404;13.532;2023-06-14T07:35:23;18.80;71.30
52481;DHT22;38393;52.404;13.532;2023-06-14T07:37:48;18.80;70.50
52481;DHT22;38393;52.404;13.532;2023-06-14T07:40:15;18.40;72.10
52481;DHT22;38393;52.404;13.532;2023-06-14T07:42:40;18.60;71.90
52481;DHT22;38393;52.404;13.532;2023-06-14T07:45:06;18.60;71.80
52481;DHT22;38393;52.404;13.532;2023-06-14T07:47:32;18.40;72.20
52481;DHT22;38393;52.404;13.532;2023-06-14T07:49:58;18.40;72.30
52481;DHT22;38393;52.404;13.532;2023-06-14T07:52:24;18.20;72.80
52481;DHT22;38393;52.404;13.532;2023-06-14T07:54:50;18.20;73.20
52481;DHT22;38393;52.404;13.532;2023-06-14T07:57:15;18.40;72.80
52481;DHT22;38393;52.404;13.532;2023-06-14T07:59:41;18.40;72.40
52481;DHT22;38393;52.404;13.532;2023-06-14T08:02:06;18.60;72.10
52481;DHT22;38393;52.404;13.532;2023-06-14T08:04:32;18.60;71.60
52481;DHT22;38393;52.404;13.532;2023-06-14T08:06:59;18.70;71.40
52481;DHT22;38393;52.404;13.532;2023-06-14T08:09:24;18.70;71.20
52481;DHT22;38393;52.404;13.532;2023-06-14T08:11:50;18.60;71.00
52481;DHT22;38393;52.404;13.532;2023-06-14T08:14:16;18.30;71.80
52481;DHT22;38393;52.404;13.532;2023-06-14T08:16:41;18.50;71.80
52481;DHT22;38393;52.404;13.532;2023-06-14T08:19:07;18.50;71.40
52481;DHT22;38393;52.404;13.532;2023-06-14T08:21:32;18.80;70.50
52481;DHT22;38393;52.404;13.532;2023-06-14T08:23:58;18.80;70.10
52481;DHT22;38393;52.404;13.532;2023-06-14T08:26:25;18.90;71.10
52481;DHT22;38393;52.404;13.532;2023-06-14T08:28:54;19.00;69.60
52481;DHT22;38393;52.404;13.532;2023-06-14T08:31:20;19.40;68.90
52481;DHT22;38393;52.404;13.532;2023-06-14T08:33:46;19.30;69.00
52481;DHT22;38393;52.404;13.532;2023-06-14T08:36:11;19.40;68.90
52481;DHT22;38393;52.404;13.532;2023-06-14T08:38:38;19.30;68.40
52481;DHT22;38393;52.404;13.532;2023-06-14T08:41:05;19.40;67.80
52481;DHT22;38393;52.404;13.532;2023-06-14T08:43:32;19.60;67.10
52481;DHT22;38393;52.404;13.532;2023-06-14T08:46:02;19.60;67.30
52481;DHT22;38393;52.404;13.532;2023-06-14T08:48:28;19.80;66.00
52481;DHT22;38393;52.404;13.532;2023-06-14T08:50:55;19.70;66.90
52481;DHT22;38393;52.404;13.532;2023-06-14T08:53:28;19.80;66.50
52481;DHT22;38393;52.404;13.532;2023-06-14T08:55:54;19.90;67.00
52481;DHT22;38393;52.404;13.532;2023-06-14T08:58:20;20.00;64.00
52481;DHT22;38393;52.404;13.532;2023-06-14T09:00:49;19.80;63.60
52481;DHT22;38393;52.404;13.532;2023-06-14T09:03:17;19.80;64.10
52481;DHT22;38393;52.404;13.532;2023-06-14T09:05:46;19.90;64.30
52481;DHT22;38393;52.404;13.532;2023-06-14T09:08:12;19.90;63.80
52481;DHT22;38393;52.404;13.532;2023-06-14T09:10:39;20.00;63.20
52481;DHT22;38393;52.404;13.532;2023-06-14T09:13:06;19.70;64.60
52481;DHT22;38393;52.404;13.532;2023-06-14T09:15:31;20.00;65.20
52481;DHT22;38393;52.404;13.532;2023-06-14T09:17:57;20.00;63.90
52481;DHT22;38393;52.404;13.532;2023-06-14T09:20:24;20.40;63.60
52481;DHT22;38393;52.404;13.532;2023-06-14T09:22:49;20.70;62.70
52481;DHT22;38393;52.404;13.532;2023-06-14T09:25:15;21.10;61.10
52481;DHT22;38393;52.404;13.532;2023-06-14T09:27:41;21.10;60.10
52481;DHT22;38393;52.404;13.532;2023-06-14T09:30:09;20.80;61.20
52481;DHT22;38393;52.404;13.532;2023-06-14T09:32:38;21.00;61.60
52481;DHT22;38393;52.404;13.532;2023-06-14T09:35:06;21.20;59.20
52481;DHT22;38393;52.404;13.532;2023-06-14T09:37:32;21.30;60.50
52481;DHT22;38393;52.404;13.532;2023-06-14T09:39:58;21.30;59.10
52481;DHT22;38393;52.404;13.532;2023-06-14T09:42:24;21.30;60.00
52481;DHT22;38393;52.404;13.532;2023-06-14T09:44:51;21.40;58.70
52481;DHT22;38393;52.404;13.532;2023-06-14T09:47:17;21.60;58.70
52481;DHT22;38393;52.404;13.532;2023-06-14T09:49:43;21.30;59.50
52481;DHT22;38393;52.404;13.532;2023-06-14T09:52:18;21.50;58.20
52481;DHT22;38393;52.404;13.532;2023-06-14T09:54:44;21.30;60.00
52481;DHT22;38393;52.404;13.532;2023-06-14T09:57:13;21.30;59.80
52481;DHT22;38393;52.404;13.532;2023-06-14T09:59:44;21.40;59.30
52481;DHT22;38393;52.404;13.532;2023-06-14T10:02:22;21.50;60.10
52481;DHT22;38393;52.404;13.532;2023-06-14T10:07:38;21.30;59.00
52481;DHT22;38393;52.404;13.532;2023-06-14T10:10:04;21.50;60.00
52481;DHT22;38393;52.404;13.532;2023-06-14T10:12:31;21.50;58.80
52481;DHT22;38393;52.404;13.532;2023-06-14T10:14:56;21.50;58.70
52481;DHT22;38393;52.404;13.532;2023-06-14T10:17:41;21.70;58.30
52481;DHT22;38393;52.404;13.532;2023-06-14T10:22:51;21.60;58.90
52481;DHT22;38393;52.404;13.532;2023-06-14T10:25:29;21.90;59.40
52481;DHT22;38393;52.404;13.532;2023-06-14T10:30:38;22.20;57.00
52481;DHT22;38393;52.404;13.532;2023-06-14T10:33:05;22.30;57.40
52481;DHT22;38393;52.404;13.532;2023-06-14T10:35:35;22.30;57.10
52481;DHT22;38393;52.404;13.532;2023-06-14T10:38:16;22.20;55.80
52481;DHT22;38393;52.404;13.532;2023-06-14T10:40:55;21.90;56.40
52481;DHT22;38393;52.404;13.532;2023-06-14T10:43:21;22.00;56.00
52481;DHT22;38393;52.404;13.532;2023-06-14T10:46:13;21.80;55.50
52481;DHT22;38393;52.404;13.532;2023-06-14T10:48:42;21.70;56.60
52481;DHT22;38393;52.404;13.532;2023-06-14T10:51:19;21.60;57.20
52481;DHT22;38393;52.404;13.532;2023-06-14T10:53:50;21.80;57.20
52481;DHT22;38393;52.404;13.532;2023-06-14T10:56:35;21.80;57.30
52481;DHT22;38393;52.404;13.532;2023-06-14T10:59:01;22.10;56.80
52481;DHT22;38393;52.404;13.532;2023-06-14T11:01:36;22.40;55.70
52481;DHT22;38393;52.404;13.532;2023-06-14T11:04:12;22.70;55.60
52481;DHT22;38393;52.404;13.532;2023-06-14T11:06:50;22.50;55.70
52481;DHT22;38393;52.404;13.532;2023-06-14T11:09:48;22.60;55.10
52481;DHT22;38393;52.404;13.532;2023-06-14T11:12:17;22.60;54.40
52481;DHT22;38393;52.404;13.532;2023-06-14T11:14:46;22.20;55.60
52481;DHT22;38393;52.404;13.532;2023-06-14T11:17:13;22.10;56.40
52481;DHT22;38393;52.404;13.532;2023-06-14T11:19:38;22.20;55.90
52481;DHT22;38393;52.404;13.532;2023-06-14T11:22:04;22.10;56.10
52481;DHT22;38393;52.404;13.532;2023-06-14T11:24:29;22.30;56.10
52481;DHT22;38393;52.404;13.532;2023-06-14T11:26:57;22.40;55.20
52481;DHT22;38393;52.404;13.532;2023-06-14T11:29:22;22.40;55.10
52481;DHT22;38393;52.404;13.532;2023-06-14T11:31:48;22.60;54.60
52481;DHT22;38393;52.404;13.532;2023-06-14T11:34:13;22.40;54.60
52481;DHT22;38393;52.404;13.532;2023-06-14T11:36:39;22.60;55.70
52481;DHT22;38393;52.404;13.532;2023-06-14T11:39:06;22.90;55.20
52481;DHT22;38393;52.404;13.532;2023-06-14T11:41:41;22.50;55.50
52481;DHT22;38393;52.404;13.532;2023-06-14T11:44:07;22.70;54.70
52481;DHT22;38393;52.404;13.532;2023-06-14T11:46:33;22.60;54.60
52481;DHT22;38393;52.404;13.532;2023-06-14T11:48:59;22.80;53.80
52481;DHT22;38393;52.404;13.532;2023-06-14T11:51:28;22.70;54.00
52481;DHT22;38393;52.404;13.532;2023-06-14T11:53:54;22.70;54.00
52481;DHT22;38393;52.404;13.532;2023-06-14T11:56:20;22.70;53.10
52481;DHT22;38393;52.404;13.532;2023-06-14T11:58:46;23.00;53.40
52481;DHT22;38393;52.404;13.532;2023-06-14T12:01:16;22.80;52.70
52481;DHT22;38393;52.404;13.532;2023-06-14T12:03:48;22.80;54.20
52481;DHT22;38393;52.404;13.532;2023-06-14T12:06:14;22.80;54.70
52481;DHT22;38393;52.404;13.532;2023-06-14T12:08:40;22.90;54.30
52481;DHT22;38393;52.404;13.532;2023-06-14T12:11:12;23.10;53.00
52481;DHT22;38393;52.404;13.532;2023-06-14T12:13:39;23.50;54.10
52481;DHT22;38393;52.404;13.532;2023-06-14T12:16:07;23.60;50.50
52481;DHT22;38393;52.404;13.532;2023-06-14T12:18:38;23.60;51.20
52481;DHT22;38393;52.404;13.532;2023-06-14T12:21:07;23.40;51.70
52481;DHT22;38393;52.404;13.532;2023-06-14T12:23:43;23.50;50.60
52481;DHT22;38393;52.404;13.532;2023-06-14T12:26:15;23.40;50.80
52481;DHT22;38393;52.404;13.532;2023-06-14T12:28:42;23.40;51.10
52481;DHT22;38393;52.404;13.532;2023-06-14T12:31:08;23.10;52.80
52481;DHT22;38393;52.404;13.532;2023-06-14T12:33:34;23.40;52.60
52481;DHT22;38393;52.404;13.532;2023-06-14T12:35:59;23.50;52.60
52481;DHT22;38393;52.404;13.532;2023-06-14T12:38:25;23.60;52.60
52481;DHT22;38393;52.404;13.532;2023-06-14T12:40:50;23.80;51.20
52481;DHT22;38393;52.404;13.532;2023-06-14T12:43:16;23.30;51.30
52481;DHT22;38393;52.404;13.532;2023-06-14T12:45:41;23.40;49.50
52481;DHT22;38393;52.404;13.532;2023-06-14T12:48:07;23.40;49.50
52481;DHT22;38393;52.404;13.532;2023-06-14T12:50:34;23.40;49.10
52481;DHT22;38393;52.404;13.532;2023-06-14T12:52:59;23.30;49.70
52481;DHT22;38393;52.404;13.532;2023-06-14T12:55:25;23.40;49.70
52481;DHT22;38393;52.404;13.532;2023-06-14T12:57:50;23.50;48.80
52481;DHT22;38393;52.404;13.532;2023-06-14T13:00:17;23.50;49.30
52481;DHT22;38393;52.404;13.532;2023-06-14T13:02:43;23.80;50.30
52481;DHT22;38393;52.404;13.532;2023-06-14T13:05:09;24.00;48.10
52481;DHT22;38393;52.404;13.532;2023-06-14T13:07:34;24.30;48.30
52481;DHT22;38393;52.404;13.532;2023-06-14T13:10:00;24.30;46.60
52481;DHT22;38393;52.404;13.532;2023-06-14T13:12:26;24.10;47.30
52481;DHT22;38393;52.404;13.532;2023-06-14T13:14:51;24.40;46.40
52481;DHT22;38393;52.404;13.532;2023-06-14T13:17:17;24.90;47.10
52481;DHT22;38393;52.404;13.532;2023-06-14T13:19:42;24.80;45.60
52481;DHT22;38393;52.404;13.532;2023-06-14T13:22:08;25.10;44.70
52481;DHT22;38393;52.404;13.532;2023-06-14T13:24:34;25.30;45.40
52481;DHT22;38393;52.404;13.532;2023-06-14T13:26:59;25.20;44.10
52481;DHT22;38393;52.404;13.532;2023-06-14T13:29:25;25.10;43.90
52481;DHT22;38393;52.404;13.532;2023-06-14T13:31:51;25.20;42.80
52481;DHT22;38393;52.404;13.532;2023-06-14T13:34:17;25.30;43.10
52481;DHT22;38393;52.404;13.532;2023-06-14T13:36:43;25.50;41.20
52481;DHT22;38393;52.404;13.532;2023-06-14T13:39:08;25.20;41.20
52481;DHT22;38393;52.404;13.532;2023-06-14T13:41:34;25.30;43.90
52481;DHT22;38393;52.404;13.532;2023-06-14T13:44:01;25.40;43.10
52481;DHT22;38393;52.404;13.532;2023-06-14T13:46:26;25.70;42.00
52481;DHT22;38393;52.404;13.532;2023-06-14T13:48:52;26.20;38.50
52481;DHT22;38393;52.404;13.532;2023-06-14T13:51:18;26.00;38.50
52481;DHT22;38393;52.404;13.532;2023-06-14T13:53:50;25.60;40.50
52481;DHT22;38393;52.404;13.532;2023-06-14T13:56:17;25.30;41.30
52481;DHT22;38393;52.404;13.532;2023-06-14T13:58:42;25.30;41.70
52481;DHT22;38393;52.404;13.532;2023-06-14T14:01:08;25.30;41.50
52481;DHT22;38393;52.404;13.532;2023-06-14T14:03:34;25.20;41.50
52481;DHT22;38393;52.404;13.532;2023-06-14T14:06:03;25.30;42.00
52481;DHT22;38393;52.404;13.532;2023-06-14T14:08:29;25.10;42.20
52481;DHT22;38393;52.404;13.532;2023-06-14T14:10:55;25.10;41.10
52481;DHT22;38393;52.404;13.532;2023-06-14T14:13:21;24.70;41.30
52481;DHT22;38393;52.404;13.532;2023-06-14T14:15:47;24.50;42.80
52481;DHT22;38393;52.404;13.532;2023-06-14T14:18:14;24.50;43.40
52481;DHT22;38393;52.404;13.532;2023-06-14T14:20:40;24.60;42.40
52481;DHT22;38393;52.404;13.532;2023-06-14T14:23:06;24.80;42.50
52481;DHT22;38393;52.404;13.532;2023-06-14T14:25:31;25.10;42.00
52481;DHT22;38393;52.404;13.532;2023-06-14T14:27:57;25.40;40.20
52481;DHT22;38393;52.404;13.532;2023-06-14T14:30:22;25.50;40.90
52481;DHT22;38393;52.404;13.532;2023-06-14T14:32:49;25.80;38.80
52481;DHT22;38393;52.404;13.532;2023-06-14T14:35:17;25.70;39.80
52481;DHT22;38393;52.404;13.532;2023-06-14T14:37:42;25.70;39.80
52481;DHT22;38393;52.404;13.532;2023-06-14T14:40:08;25.90;42.80
52481;DHT22;38393;52.404;13.532;2023-06-14T14:42:35;25.50;39.60
52481;DHT22;38393;52.404;13.532;2023-06-14T14:45:01;25.50;39.70
52481;DHT22;38393;52.404;13.532;2023-06-14T14:47:26;25.30;39.90
52481;DHT22;38393;52.404;13.532;2023-06-14T14:49:52;25.40;40.60
52481;DHT22;38393;52.404;13.532;2023-06-14T14:52:17;25.80;39.80
52481;DHT22;38393;52.404;13.532;2023-06-14T14:54:43;26.20;37.70
52481;DHT22;38393;52.404;13.532;2023-06-14T14:57:08;26.10;38.70
52481;DHT22;38393;52.404;13.532;2023-06-14T14:59:33;25.90;37.70
52481;DHT22;38393;52.404;13.532;2023-06-14T15:01:59;25.90;38.00
52481;DHT22;38393;52.404;13.532;2023-06-14T15:04:24;26.20;39.20
52481;DHT22;38393;52.404;13.532;2023-06-14T15:06:50;26.10;37.50
52481;DHT22;38393;52.404;13.532;2023-06-14T15:09:15;25.80;38.90
52481;DHT22;38393;52.404;13.532;2023-06-14T15:11:41;25.60;39.20
52481;DHT22;38393;52.404;13.532;2023-06-14T15:14:09;25.40;39.80
52481;DHT22;38393;52.404;13.532;2023-06-14T15:16:35;25.20;39.40
52481;DHT22;38393;52.404;13.532;2023-06-14T15:19:00;25.00;40.00
52481;DHT22;38393;52.404;13.532;2023-06-14T15:21:25;24.90;40.90
52481;DHT22;38393;52.404;13.532;2023-06-14T15:23:51;24.80;40.80